Battle Creek, Michigan
Current Conditions -  °F | °C
As of 3:53 PM on Thursday 23 Oct 2014 (Local Time) from KBTL Reporting Station
Clear Clear  
Wind Chill: 56°   Ceiling: Unl
Heat Index: 56°   Visibility: 10mi
Dew Point: 36°   Wind: 5mph
Humidity: 47%   Direction: NA
Pressure: 30.16"   Gusts: NA
Location:  42.32°N, 85.18°W
Report Text: KBTL 231953Z VRB04KT 10SM CLR 13/02 A3016 RMK AO2 SLP217 T01330022
Loading
Personal Weather Stations






























Interactive Weather Map
Tropical Storm Tracking
New forecast layout! Learn more

10-Day Weather Forecast

Advertisements
Track Severe Weather on mobile